createdAt,value
2018-11-10T00:00:40.273Z,1.37
2018-11-10T00:01:44.341Z,1.23
2018-11-10T00:02:49.404Z,1.87
2018-11-10T00:03:53.455Z,1.20
2018-11-10T00:04:57.426Z,1.27
2018-11-10T00:06:01.474Z,1.53
2018-11-10T00:07:05.499Z,1.73
2018-11-10T00:08:09.599Z,1.53
2018-11-10T00:09:13.660Z,1.57
2018-11-10T00:10:18.617Z,1.33
2018-11-10T00:11:27.580Z,1.43
2018-11-10T00:12:31.553Z,1.27
2018-11-10T00:13:35.514Z,1.20
2018-11-10T00:14:39.493Z,1.40
2018-11-10T00:15:43.485Z,1.60
2018-11-10T00:16:47.466Z,1.50
2018-11-10T00:17:51.423Z,1.67
2018-11-10T00:18:55.500Z,1.63
2018-11-10T00:20:01.518Z,1.40
2018-11-10T00:21:05.548Z,1.43
2018-11-10T00:22:09.528Z,1.90
2018-11-10T00:23:13.506Z,1.40
2018-11-10T00:24:17.490Z,1.17
2018-11-10T00:25:21.490Z,1.43
2018-11-10T00:26:25.450Z,1.40
2018-11-10T00:27:29.522Z,1.40
2018-11-10T00:28:33.616Z,1.70
2018-11-10T00:29:37.679Z,1.57
2018-11-10T00:30:41.685Z,1.70
2018-11-10T00:31:45.735Z,1.70
2018-11-10T00:32:49.751Z,1.80
2018-11-10T00:33:53.834Z,1.67
2018-11-10T00:34:57.846Z,1.40
2018-11-10T00:36:01.963Z,1.70
2018-11-10T00:37:06.243Z,1.40
2018-11-10T00:38:10.217Z,1.60
2018-11-10T00:39:14.264Z,1.40
2018-11-10T00:40:18.405Z,1.47
2018-11-10T00:41:22.348Z,1.80
2018-11-10T00:42:26.565Z,1.80
2018-11-10T00:43:30.583Z,1.83
2018-11-10T00:44:34.751Z,1.43
2018-11-10T00:45:38.784Z,1.77
2018-11-10T00:46:42.873Z,1.67
2018-11-10T00:47:46.860Z,1.30
2018-11-10T00:48:50.935Z,1.60
2018-11-10T00:49:54.929Z,1.50
2018-11-10T00:50:58.991Z,1.40
2018-11-10T00:52:03.095Z,1.77
2018-11-10T00:53:07.123Z,1.60
2018-11-10T00:54:11.291Z,2.50
2018-11-10T00:55:15.305Z,1.53
2018-11-10T00:56:20.513Z,1.37
2018-11-10T00:57:24.699Z,2.00
2018-11-10T00:58:28.731Z,1.40
2018-11-10T00:59:32.823Z,1.42
2018-11-10T01:00:36.811Z,1.67
2018-11-10T01:01:40.846Z,1.80
2018-11-10T01:02:45.375Z,1.10
2018-11-10T01:03:49.395Z,1.33
2018-11-10T01:04:53.453Z,1.57
2018-11-10T01:05:57.546Z,1.10
2018-11-10T01:07:03.583Z,1.50
2018-11-10T01:08:07.646Z,1.63
2018-11-10T01:09:11.604Z,1.40
2018-11-10T01:10:15.553Z,1.23
2018-11-10T01:11:19.520Z,1.53
2018-11-10T01:12:23.507Z,1.60
2018-11-10T01:13:27.582Z,1.50
2018-11-10T01:14:31.661Z,1.50
2018-11-10T01:15:35.605Z,1.60
2018-11-10T01:16:39.696Z,1.40
2018-11-10T01:17:51.372Z,1.80
2018-11-10T01:18:55.338Z,1.73
2018-11-10T01:19:59.311Z,1.50
2018-11-10T01:21:03.379Z,1.67
2018-11-10T01:22:07.580Z,1.63
2018-11-10T01:23:11.562Z,1.33
2018-11-10T01:24:15.515Z,1.27
2018-11-10T01:25:19.479Z,1.83
2018-11-10T01:26:23.588Z,1.00
2018-11-10T01:27:27.668Z,1.50
2018-11-10T01:28:31.648Z,1.60
2018-11-10T01:29:35.679Z,1.63
2018-11-10T01:30:39.812Z,1.57
2018-11-10T01:31:47.721Z,1.57
2018-11-10T01:32:51.686Z,1.53
2018-11-10T01:33:55.649Z,1.50
2018-11-10T01:34:59.614Z,1.83
2018-11-10T01:36:03.655Z,1.33
2018-11-10T01:37:07.623Z,1.70
2018-11-10T01:38:11.587Z,1.40
2018-11-10T01:39:15.591Z,1.90
2018-11-10T01:40:19.566Z,1.80
2018-11-10T01:41:23.658Z,1.57
2018-11-10T01:42:27.799Z,1.80
2018-11-10T01:43:31.759Z,1.20
2018-11-10T01:44:35.709Z,1.60
2018-11-10T01:45:39.673Z,1.50
2018-11-10T01:46:43.697Z,1.67
2018-11-10T01:47:48.099Z,1.50
2018-11-10T01:48:52.105Z,1.93
2018-11-10T01:49:56.079Z,1.63
2018-11-10T01:51:00.062Z,1.17
2018-11-10T01:52:04.135Z,1.33
2018-11-10T01:53:08.129Z,1.70
2018-11-10T01:54:12.163Z,1.47
2018-11-10T01:55:16.171Z,1.50
2018-11-10T01:56:24.839Z,1.57
2018-11-10T01:57:28.796Z,1.20
2018-11-10T01:58:32.777Z,1.50
2018-11-10T01:59:36.759Z,1.60
2018-11-10T02:00:40.728Z,1.40
2018-11-10T02:01:44.834Z,1.67
2018-11-10T02:02:49.114Z,1.37
2018-11-10T02:03:53.183Z,1.57
2018-11-10T02:04:57.184Z,1.60
2018-11-10T02:06:01.256Z,1.77
2018-11-10T02:07:05.392Z,1.63
2018-11-10T02:08:09.486Z,1.70
2018-11-10T02:09:13.624Z,2.10
2018-11-10T02:10:17.680Z,2.00
2018-11-10T02:11:21.648Z,1.80
2018-11-10T02:12:25.836Z,1.83
2018-11-10T02:13:29.787Z,1.60
2018-11-10T02:14:33.747Z,1.67
2018-11-10T02:15:37.738Z,1.60
2018-11-10T02:16:41.725Z,1.80
2018-11-10T02:17:48.434Z,1.80
2018-11-10T02:18:52.422Z,2.10
2018-11-10T02:19:56.401Z,1.80
2018-11-10T02:21:00.509Z,2.00
2018-11-10T02:22:05.704Z,1.77
2018-11-10T02:23:09.803Z,1.83
2018-11-10T02:24:13.779Z,2.00
2018-11-10T02:25:17.795Z,1.80
2018-11-10T02:26:21.994Z,1.63
2018-11-10T02:27:26.617Z,1.80
2018-11-10T02:28:30.803Z,2.33
2018-11-10T02:29:34.863Z,1.97
2018-11-10T02:30:38.927Z,1.50
2018-11-10T02:31:43.033Z,1.60
2018-11-10T02:32:47.121Z,1.93
2018-11-10T02:33:51.099Z,1.57
2018-11-10T02:35:04.339Z,1.93
2018-11-10T02:36:08.385Z,1.87
2018-11-10T02:37:12.429Z,1.87
2018-11-10T02:38:16.519Z,2.10
2018-11-10T02:39:26.232Z,1.60
2018-11-10T02:40:30.199Z,1.87
2018-11-10T02:41:34.248Z,2.00
2018-11-10T02:42:38.287Z,1.77
2018-11-10T02:43:42.469Z,1.63
2018-11-10T02:44:46.583Z,1.50
2018-11-10T02:45:50.585Z,1.30
2018-11-10T02:46:54.559Z,1.90
2018-11-10T02:47:58.612Z,1.00
2018-11-10T02:49:02.572Z,1.77
2018-11-10T02:50:07.596Z,1.27
2018-11-10T02:51:11.574Z,1.50
2018-11-10T02:52:15.535Z,1.30
2018-11-10T02:53:19.523Z,1.50
2018-11-10T02:54:23.530Z,1.37
2018-11-10T02:55:27.688Z,1.43
2018-11-10T02:56:31.650Z,1.10
2018-11-10T02:57:35.616Z,1.73
2018-11-10T02:58:39.800Z,1.73
2018-11-10T02:59:43.771Z,1.30
2018-11-10T03:00:47.720Z,1.37
2018-11-10T03:01:51.892Z,1.20
2018-11-10T03:02:55.861Z,1.23
2018-11-10T03:04:00.027Z,1.30
2018-11-10T03:05:04.054Z,1.20
2018-11-10T03:06:08.033Z,1.50
2018-11-10T03:07:12.002Z,1.53
2018-11-10T03:08:16.080Z,1.00
2018-11-10T03:09:20.168Z,1.70
2018-11-10T03:10:24.324Z,1.40
2018-11-10T03:11:30.398Z,1.13
2018-11-10T03:12:34.389Z,1.07
2018-11-10T03:13:38.512Z,1.23
2018-11-10T03:14:42.592Z,1.10
2018-11-10T03:15:46.556Z,1.13
2018-11-10T03:16:50.647Z,1.13
2018-11-10T03:17:55.652Z,1.30
2018-11-10T03:18:59.625Z,1.10
2018-11-10T03:20:04.117Z,1.10
2018-11-10T03:21:08.193Z,1.00
2018-11-10T03:22:12.257Z,1.43
2018-11-10T03:23:16.221Z,1.30
2018-11-10T03:24:20.184Z,1.17
2018-11-10T03:25:24.225Z,1.10
2018-11-10T03:26:28.277Z,1.57
2018-11-10T03:27:32.245Z,1.43
2018-11-10T03:28:36.397Z,1.03
2018-11-10T03:29:40.373Z,1.30
2018-11-10T03:30:44.357Z,1.43
2018-11-10T03:31:49.452Z,1.63
2018-11-10T03:32:53.504Z,1.20
2018-11-10T03:33:57.804Z,1.40
2018-11-10T03:35:01.979Z,1.27
2018-11-10T03:36:05.932Z,1.50
2018-11-10T03:37:09.892Z,0.97
2018-11-10T03:38:13.870Z,1.20
2018-11-10T03:39:17.842Z,1.07
2018-11-10T03:40:21.978Z,1.10
2018-11-10T03:41:26.048Z,0.90
2018-11-10T03:42:30.027Z,1.53
2018-11-10T03:43:34.008Z,1.10
2018-11-10T03:44:37.970Z,1.30
2018-11-10T03:45:41.974Z,1.30
2018-11-10T03:46:45.925Z,1.23
2018-11-10T03:47:53.724Z,1.20
2018-11-10T03:48:57.792Z,1.43
2018-11-10T03:50:01.699Z,1.03
2018-11-10T03:51:05.669Z,1.30
2018-11-10T03:52:09.856Z,1.10
2018-11-10T03:53:13.840Z,1.10
2018-11-10T03:54:17.821Z,1.30
2018-11-10T03:55:21.844Z,1.20
2018-11-10T03:56:25.922Z,1.00
2018-11-10T03:57:30.460Z,1.10
2018-11-10T03:58:34.602Z,1.20
2018-11-10T03:59:38.629Z,1.10
2018-11-10T04:00:42.708Z,1.53
2018-11-10T04:01:46.776Z,1.20
2018-11-10T04:02:50.845Z,1.00
2018-11-10T04:03:54.822Z,0.97
2018-11-10T04:04:58.894Z,0.90
2018-11-10T04:06:02.888Z,1.10
2018-11-10T04:07:06.977Z,1.20
2018-11-10T04:08:10.947Z,1.00
2018-11-10T04:09:15.049Z,1.23
2018-11-10T04:10:19.057Z,1.30
2018-11-10T04:11:23.030Z,1.27
2018-11-10T04:12:26.980Z,1.30
2018-11-10T04:13:31.611Z,1.10
2018-11-10T04:14:35.675Z,1.10
2018-11-10T04:15:44.645Z,1.23
2018-11-10T04:16:48.615Z,1.43
2018-11-10T04:17:52.590Z,1.33
2018-11-10T04:18:56.545Z,0.93
2018-11-10T04:20:01.734Z,1.20
2018-11-10T04:21:05.838Z,1.33
2018-11-10T04:22:09.902Z,1.10
2018-11-10T04:23:13.897Z,1.20
2018-11-10T04:24:17.856Z,1.37
2018-11-10T04:25:21.840Z,1.57
2018-11-10T04:26:25.930Z,1.07
2018-11-10T04:27:30.257Z,1.30
2018-11-10T04:28:34.271Z,1.50
2018-11-10T04:29:38.379Z,1.10
2018-11-10T04:30:42.344Z,1.30
2018-11-10T04:31:46.348Z,1.10
2018-11-10T04:32:50.309Z,1.50
2018-11-10T04:33:54.314Z,1.23
2018-11-10T04:34:58.302Z,0.87
2018-11-10T04:36:02.294Z,1.07
2018-11-10T04:37:06.372Z,1.30
2018-11-10T04:38:10.392Z,1.20
2018-11-10T04:39:14.432Z,1.10
2018-11-10T04:40:18.396Z,1.40
2018-11-10T04:41:22.440Z,0.93
2018-11-10T04:42:26.907Z,1.20
2018-11-10T04:43:30.853Z,1.00
2018-11-10T04:44:34.820Z,1.17
2018-11-10T04:45:38.775Z,1.00
2018-11-10T04:46:42.785Z,1.40
2018-11-10T04:47:46.798Z,1.13
2018-11-10T04:48:50.774Z,0.83
2018-11-10T04:49:54.784Z,1.43
2018-11-10T04:50:58.754Z,0.90
2018-11-10T04:52:02.781Z,1.20
2018-11-10T04:53:06.924Z,1.13
2018-11-10T04:54:16.166Z,1.70
2018-11-10T04:55:20.148Z,1.30
2018-11-10T04:56:24.122Z,1.03
2018-11-10T04:57:28.073Z,0.93
2018-11-10T04:58:32.163Z,1.40
2018-11-10T04:59:36.284Z,1.10
2018-11-10T05:00:40.351Z,1.10
2018-11-10T05:01:44.563Z,1.60
2018-11-10T05:02:48.556Z,1.67
2018-11-10T05:03:52.603Z,0.90
2018-11-10T05:04:56.555Z,1.30
2018-11-10T05:06:00.561Z,1.13
2018-11-10T05:07:04.993Z,1.30
2018-11-10T05:08:08.966Z,1.27
2018-11-10T05:09:12.937Z,1.10
2018-11-10T05:10:16.921Z,1.90
2018-11-10T05:11:20.963Z,1.30
2018-11-10T05:12:24.925Z,1.40
2018-11-10T05:13:28.971Z,1.47
2018-11-10T05:14:32.949Z,1.40
2018-11-10T05:15:36.935Z,1.07
2018-11-10T05:16:40.939Z,1.37
2018-11-10T05:17:44.955Z,1.30
2018-11-10T05:18:48.933Z,1.30
2018-11-10T05:19:53.076Z,1.03
2018-11-10T05:20:57.167Z,1.17
2018-11-10T05:22:01.200Z,1.23
2018-11-10T05:23:05.332Z,1.77
2018-11-10T05:24:09.314Z,1.10
2018-11-10T05:25:13.296Z,1.13
2018-11-10T05:26:17.284Z,1.50
2018-11-10T05:27:21.273Z,1.13
2018-11-10T05:28:25.226Z,1.27
2018-11-10T05:29:29.300Z,1.20
2018-11-10T05:30:33.328Z,1.37
2018-11-10T05:31:37.620Z,1.30
2018-11-10T05:32:41.589Z,1.47
2018-11-10T05:33:45.553Z,0.90
2018-11-10T05:34:49.684Z,1.23
2018-11-10T05:35:53.788Z,1.10
2018-11-10T05:36:57.880Z,1.30
2018-11-10T05:38:01.838Z,0.83
2018-11-10T05:39:07.686Z,1.40
2018-11-10T05:40:11.956Z,1.50
2018-11-10T05:41:16.177Z,1.40
2018-11-10T05:42:20.157Z,1.30
2018-11-10T05:43:24.113Z,1.50
2018-11-10T05:44:28.083Z,1.33
2018-11-10T05:45:35.412Z,1.20
2018-11-10T05:46:39.384Z,1.17
2018-11-10T05:47:43.393Z,1.10
2018-11-10T05:48:47.381Z,1.20
2018-11-10T05:49:51.369Z,1.23
2018-11-10T05:50:55.418Z,1.30
2018-11-10T05:51:59.369Z,1.13
2018-11-10T05:53:03.479Z,1.27
2018-11-10T05:54:07.767Z,1.07
2018-11-10T05:55:11.855Z,1.40
2018-11-10T05:56:15.931Z,1.23
2018-11-10T05:57:20.021Z,1.03
2018-11-10T05:58:23.903Z,1.30
2018-11-10T05:59:32.519Z,0.97
2018-11-10T06:00:36.742Z,1.00
2018-11-10T06:01:40.843Z,1.00
2018-11-10T06:02:44.933Z,0.80
2018-11-10T06:03:48.903Z,1.03
2018-11-10T06:04:52.945Z,1.00
2018-11-10T06:05:57.068Z,0.80
2018-11-10T06:07:01.065Z,0.90
2018-11-10T06:08:05.321Z,0.80
2018-11-10T06:09:10.966Z,1.27
2018-11-10T06:10:15.056Z,0.70
2018-11-10T06:11:18.883Z,0.90
2018-11-10T06:12:22.882Z,0.90
2018-11-10T06:13:26.877Z,0.90
2018-11-10T06:14:30.935Z,0.80
2018-11-10T06:15:34.895Z,0.73
2018-11-10T06:16:38.894Z,0.80
2018-11-10T06:17:42.852Z,0.80
2018-11-10T06:18:46.983Z,0.80
2018-11-10T06:19:50.897Z,0.93
2018-11-10T06:20:55.084Z,0.80
2018-11-10T06:21:59.140Z,0.60
2018-11-10T06:23:03.137Z,0.97
2018-11-10T06:24:07.202Z,0.93
2018-11-10T06:25:11.833Z,0.70
2018-11-10T06:26:15.888Z,0.73
2018-11-10T06:27:19.805Z,0.97
2018-11-10T06:28:24.032Z,0.77
2018-11-10T06:29:28.011Z,0.80
2018-11-10T06:30:31.979Z,0.80
2018-11-10T06:31:35.988Z,0.90
2018-11-10T06:32:45.596Z,0.63
2018-11-10T06:33:49.652Z,0.80
2018-11-10T06:34:53.760Z,1.10
2018-11-10T06:35:57.746Z,0.83
2018-11-10T06:37:01.972Z,0.73
2018-11-10T06:38:06.278Z,0.70
2018-11-10T06:39:11.321Z,0.70
2018-11-10T06:40:15.401Z,0.50
2018-11-10T06:41:19.591Z,0.70
2018-11-10T06:42:23.551Z,0.93
2018-11-10T06:43:27.681Z,0.60
2018-11-10T06:44:31.656Z,0.80
2018-11-10T06:45:35.634Z,0.57
2018-11-10T06:46:39.741Z,0.70
2018-11-10T06:47:43.823Z,0.70
2018-11-10T06:48:47.988Z,0.90
2018-11-10T06:49:51.939Z,0.60
2018-11-10T06:50:56.031Z,0.63
2018-11-10T06:52:00.054Z,0.50
2018-11-10T06:53:04.160Z,0.83
2018-11-10T06:54:08.170Z,0.63
2018-11-10T06:55:12.251Z,0.50
2018-11-10T06:56:16.249Z,0.60
2018-11-10T06:57:20.237Z,0.53
2018-11-10T06:58:24.337Z,0.83
2018-11-10T06:59:28.307Z,0.60
2018-11-10T07:00:32.322Z,0.70
2018-11-10T07:01:36.426Z,0.70
2018-11-10T07:02:40.980Z,0.57
2018-11-10T07:03:44.935Z,0.63
2018-11-10T07:04:49.037Z,0.63
2018-11-10T07:05:53.154Z,0.70
2018-11-10T07:06:57.274Z,0.87
2018-11-10T07:08:01.251Z,0.60
2018-11-10T07:09:08.088Z,0.70
2018-11-10T07:10:12.246Z,0.53
2018-11-10T07:11:16.213Z,0.70
2018-11-10T07:12:20.268Z,0.57
2018-11-10T07:13:24.256Z,0.90
2018-11-10T07:14:28.220Z,0.50
2018-11-10T07:15:32.240Z,0.60
2018-11-10T07:16:36.360Z,0.40
2018-11-10T07:17:40.387Z,0.33
2018-11-10T07:18:44.410Z,0.60
2018-11-10T07:19:48.404Z,0.80
2018-11-10T07:20:52.446Z,0.30
2018-11-10T07:21:56.451Z,0.50
2018-11-10T07:23:00.729Z,0.50
2018-11-10T07:24:05.141Z,0.63
2018-11-10T07:25:09.844Z,0.60
2018-11-10T07:26:13.815Z,0.40
2018-11-10T07:27:17.880Z,0.50
2018-11-10T07:28:21.909Z,0.50
2018-11-10T07:29:25.895Z,0.57
2018-11-10T07:30:29.879Z,0.27
2018-11-10T07:31:33.882Z,0.63
2018-11-10T07:32:38.025Z,0.50
2018-11-10T07:33:42.543Z,0.60
2018-11-10T07:34:46.600Z,0.50
2018-11-10T07:35:50.709Z,0.77
2018-11-10T07:36:54.744Z,0.57
2018-11-10T07:37:58.731Z,0.50
2018-11-10T07:39:02.746Z,0.80
2018-11-10T07:40:08.529Z,0.80
2018-11-10T07:41:12.627Z,0.50
2018-11-10T07:42:16.823Z,0.50
2018-11-10T07:43:20.910Z,0.50
2018-11-10T07:44:27.069Z,0.30
2018-11-10T07:45:31.096Z,0.50
2018-11-10T07:46:35.074Z,0.67
2018-11-10T07:47:39.067Z,0.60
2018-11-10T07:48:43.109Z,0.50
2018-11-10T07:49:47.107Z,0.70
2018-11-10T07:50:51.152Z,0.80
2018-11-10T07:51:55.162Z,0.80
2018-11-10T07:52:59.191Z,0.67
2018-11-10T07:54:03.307Z,0.50
2018-11-10T07:55:08.227Z,0.50
2018-11-10T07:56:12.210Z,0.70
2018-11-10T07:57:16.336Z,0.77
2018-11-10T07:58:20.412Z,0.53
2018-11-10T07:59:24.443Z,1.07
2018-11-10T08:00:28.542Z,0.50
2018-11-10T08:01:32.528Z,0.50
2018-11-10T08:02:36.514Z,0.70
2018-11-10T08:03:40.608Z,0.50
2018-11-10T08:04:44.582Z,0.57
2018-11-10T08:05:48.566Z,0.50
2018-11-10T08:06:52.576Z,0.60
2018-11-10T08:07:56.604Z,1.20
2018-11-10T08:09:00.721Z,0.50
2018-11-10T08:10:05.744Z,0.60
2018-11-10T08:11:09.822Z,0.50
2018-11-10T08:12:13.922Z,0.60
2018-11-10T08:13:17.968Z,0.67
2018-11-10T08:14:21.992Z,0.60
2018-11-10T08:15:25.969Z,0.70
2018-11-10T08:16:29.964Z,0.50
2018-11-10T08:17:33.985Z,0.60
2018-11-10T08:18:38.006Z,0.50
2018-11-10T08:19:41.973Z,0.50
2018-11-10T08:20:45.991Z,0.77
2018-11-10T08:21:49.996Z,0.73
2018-11-10T08:22:54.037Z,0.70
2018-11-10T08:23:58.129Z,0.47
2018-11-10T08:25:02.183Z,0.40
2018-11-10T08:26:06.256Z,0.53
2018-11-10T08:27:10.332Z,0.63
2018-11-10T08:28:14.330Z,0.63
2018-11-10T08:29:18.374Z,0.70
2018-11-10T08:30:22.371Z,0.60
2018-11-10T08:31:26.475Z,0.73
2018-11-10T08:32:30.479Z,0.70
2018-11-10T08:33:34.489Z,0.80
2018-11-10T08:34:38.517Z,0.70
2018-11-10T08:35:42.529Z,0.97
2018-11-10T08:36:46.629Z,0.70
2018-11-10T08:37:50.658Z,0.63
2018-11-10T08:38:54.656Z,0.77
2018-11-10T08:39:58.783Z,0.60
2018-11-10T08:41:03.857Z,0.60
2018-11-10T08:42:07.844Z,0.50
2018-11-10T08:43:11.890Z,0.40
2018-11-10T08:44:15.968Z,0.60
2018-11-10T08:45:19.986Z,0.60
2018-11-10T08:46:23.983Z,0.40
2018-11-10T08:47:27.999Z,0.47
2018-11-10T08:48:32.028Z,0.90
2018-11-10T08:49:36.148Z,0.50
2018-11-10T08:50:40.152Z,0.40
2018-11-10T08:51:44.404Z,0.67
2018-11-10T08:52:48.372Z,0.60
2018-11-10T08:53:52.337Z,0.60
2018-11-10T08:54:56.335Z,0.50
2018-11-10T08:56:00.516Z,0.70
2018-11-10T08:57:04.694Z,0.77
2018-11-10T08:58:09.190Z,0.70
2018-11-10T08:59:13.299Z,0.50
2018-11-10T09:00:17.284Z,0.60
2018-11-10T09:01:21.261Z,0.67
2018-11-10T09:02:25.416Z,0.70
2018-11-10T09:03:30.653Z,1.00
2018-11-10T09:04:34.836Z,0.72
2018-11-10T09:05:38.818Z,0.60
2018-11-10T09:06:43.008Z,0.80
2018-11-10T09:07:46.974Z,0.40
2018-11-10T09:08:50.975Z,0.80
2018-11-10T09:09:55.040Z,0.60
2018-11-10T09:10:59.128Z,0.72
2018-11-10T09:12:03.157Z,0.40
2018-11-10T09:13:07.357Z,0.77
2018-11-10T09:14:11.563Z,0.57
2018-11-10T09:15:16.353Z,0.60
2018-11-10T09:16:20.311Z,0.70
2018-11-10T09:17:24.375Z,0.63
2018-11-10T09:18:28.596Z,0.63
2018-11-10T09:19:32.620Z,0.63
2018-11-10T09:20:38.834Z,0.63
2018-11-10T09:21:42.976Z,0.67
2018-11-10T09:22:46.932Z,0.50
2018-11-10T09:23:51.010Z,0.57
2018-11-10T09:24:55.005Z,0.70
2018-11-10T09:25:59.022Z,0.70
2018-11-10T09:27:03.167Z,0.73
2018-11-10T09:28:07.179Z,0.40
2018-11-10T09:29:11.280Z,0.50
2018-11-10T09:30:16.581Z,0.40
2018-11-10T09:31:21.791Z,0.67
2018-11-10T09:32:25.893Z,0.47
2018-11-10T09:33:29.897Z,0.63
2018-11-10T09:34:33.904Z,0.40
2018-11-10T09:35:37.984Z,0.70
2018-11-10T09:36:41.990Z,0.50
2018-11-10T09:37:46.109Z,0.50
2018-11-10T09:38:50.092Z,0.60
2018-11-10T09:39:54.186Z,0.90
2018-11-10T09:40:58.184Z,0.40
2018-11-10T09:42:02.335Z,0.73
2018-11-10T09:43:06.357Z,0.50
2018-11-10T09:44:10.335Z,0.57
2018-11-10T09:45:15.742Z,0.50
2018-11-10T09:46:19.837Z,0.70
2018-11-10T09:47:23.847Z,0.63
2018-11-10T09:48:27.852Z,0.50
2018-11-10T09:49:31.834Z,0.70
2018-11-10T09:50:35.903Z,0.60
2018-11-10T09:51:39.922Z,0.80
2018-11-10T09:52:44.396Z,0.50
2018-11-10T09:53:48.464Z,0.60
2018-11-10T09:54:52.556Z,0.80
2018-11-10T09:55:56.573Z,0.60
2018-11-10T09:57:00.689Z,0.42
2018-11-10T09:58:04.701Z,0.87
2018-11-10T09:59:08.879Z,0.40
2018-11-10T10:00:15.467Z,0.47
2018-11-10T10:01:19.706Z,0.43
2018-11-10T10:02:24.107Z,0.67
2018-11-10T10:03:27.839Z,0.80
2018-11-10T10:04:31.833Z,0.60
2018-11-10T10:05:35.851Z,0.70
2018-11-10T10:06:39.868Z,0.50
2018-11-10T10:07:44.573Z,0.73
2018-11-10T10:08:48.693Z,0.50
2018-11-10T10:09:52.705Z,0.80
2018-11-10T10:10:56.735Z,0.80
2018-11-10T10:12:00.727Z,1.20
2018-11-10T10:13:04.954Z,1.03
2018-11-10T10:14:10.013Z,0.83
2018-11-10T10:15:15.316Z,0.80
2018-11-10T10:16:19.478Z,0.90
2018-11-10T10:17:23.317Z,0.70
2018-11-10T10:18:27.319Z,0.80
2018-11-10T10:19:31.514Z,0.83
2018-11-10T10:20:35.481Z,1.00
2018-11-10T10:21:39.493Z,0.77
2018-11-10T10:22:44.264Z,0.73
2018-11-10T10:23:48.361Z,0.90
2018-11-10T10:24:53.339Z,0.50
2018-11-10T10:25:57.306Z,0.70
2018-11-10T10:27:01.338Z,0.60
2018-11-10T10:28:05.673Z,0.77
2018-11-10T10:29:09.780Z,1.13
2018-11-10T10:30:21.385Z,0.90
2018-11-10T10:31:25.367Z,0.67
2018-11-10T10:32:29.356Z,0.93
2018-11-10T10:33:33.360Z,0.90
2018-11-10T10:34:37.679Z,0.80
2018-11-10T10:35:41.580Z,0.83
2018-11-10T10:36:45.630Z,0.90
2018-11-10T10:37:51.100Z,0.77
2018-11-10T10:38:55.100Z,0.83
2018-11-10T10:39:59.087Z,0.70
2018-11-10T10:41:03.944Z,1.23
2018-11-10T10:42:07.944Z,0.40
2018-11-10T10:43:12.106Z,1.20
2018-11-10T10:44:16.209Z,0.60
2018-11-10T10:45:22.576Z,0.67
2018-11-10T10:46:26.593Z,0.67
2018-11-10T10:47:30.688Z,0.60
2018-11-10T10:48:34.873Z,1.00
2018-11-10T10:49:38.843Z,0.93
2018-11-10T10:50:44.112Z,0.63
2018-11-10T10:51:51.959Z,0.73
2018-11-10T10:52:56.072Z,0.80
2018-11-10T10:54:00.111Z,0.53
2018-11-10T10:55:04.180Z,0.70
2018-11-10T10:56:08.416Z,0.65
2018-11-10T10:57:13.708Z,0.55
2018-11-10T10:58:20.433Z,0.72
2018-11-10T10:59:28.002Z,0.93
2018-11-10T11:00:39.705Z,0.80
2018-11-10T11:02:50.269Z,0.70
2018-11-10T11:04:01.919Z,0.90
2018-11-10T11:05:13.698Z,0.90
2018-11-10T11:06:21.657Z,0.87
2018-11-10T11:07:28.941Z,1.10
2018-11-10T11:08:35.838Z,0.93
2018-11-10T11:09:39.871Z,0.90
2018-11-10T11:10:43.840Z,0.70
2018-11-10T11:11:47.911Z,1.00
2018-11-10T11:12:52.869Z,0.80
2018-11-10T11:13:56.864Z,1.00
2018-11-10T11:15:00.941Z,0.98
2018-11-10T11:16:05.472Z,1.12
2018-11-10T11:17:09.460Z,0.77
2018-11-10T11:18:13.454Z,1.32
2018-11-10T11:19:17.416Z,0.80
2018-11-10T11:20:21.400Z,1.00
2018-11-10T11:21:25.485Z,1.00
2018-11-10T11:22:29.473Z,0.70
2018-11-10T11:23:33.526Z,1.20
2018-11-10T11:24:37.964Z,0.90
2018-11-10T11:25:42.086Z,0.90
2018-11-10T11:26:46.127Z,0.75
2018-11-10T11:27:50.112Z,0.70
2018-11-10T11:28:54.124Z,1.15
2018-11-10T11:29:58.177Z,0.80
2018-11-10T11:31:02.170Z,0.90
2018-11-10T11:32:06.588Z,1.00
2018-11-10T11:33:10.685Z,1.90
2018-11-10T11:34:14.717Z,1.20
2018-11-10T11:35:18.940Z,1.00
2018-11-10T11:36:22.916Z,0.40
2018-11-10T11:37:27.015Z,1.77
2018-11-10T11:38:31.043Z,0.82
2018-11-10T11:39:35.088Z,0.50
2018-11-10T11:40:39.069Z,0.53
2018-11-10T11:41:43.123Z,0.60
2018-11-10T11:42:47.729Z,0.57
2018-11-10T11:43:51.862Z,1.45
2018-11-10T11:44:55.951Z,0.93
2018-11-10T11:45:59.984Z,0.68
2018-11-10T11:47:03.954Z,0.50
2018-11-10T11:48:08.003Z,0.60
2018-11-10T11:49:12.219Z,0.53
2018-11-10T11:50:16.739Z,0.72
2018-11-10T11:51:20.867Z,0.40
2018-11-10T11:52:24.885Z,0.45
2018-11-10T11:53:28.875Z,0.45
2018-11-10T11:54:32.865Z,0.40
2018-11-10T11:55:36.990Z,0.60
2018-11-10T11:56:41.002Z,0.42
2018-11-10T11:57:45.063Z,0.30
2018-11-10T11:58:49.113Z,0.57
2018-11-10T11:59:53.096Z,0.62
2018-11-10T12:00:57.091Z,0.65
2018-11-10T12:02:01.090Z,0.57
2018-11-10T12:03:05.077Z,0.60
2018-11-10T12:04:09.049Z,0.50
2018-11-10T12:05:14.693Z,0.62
2018-11-10T12:06:18.757Z,0.50
2018-11-10T12:07:22.735Z,0.50
2018-11-10T12:08:26.712Z,0.55
2018-11-10T12:09:30.702Z,0.70
2018-11-10T12:10:34.692Z,0.45
2018-11-10T12:11:38.678Z,0.68
2018-11-10T12:12:42.717Z,0.60
2018-11-10T12:13:46.730Z,0.60
2018-11-10T12:14:50.701Z,0.53
2018-11-10T12:15:54.711Z,0.42
2018-11-10T12:16:59.021Z,0.88
2018-11-10T12:18:03.082Z,0.42
2018-11-10T12:19:07.288Z,0.28
2018-11-10T12:20:13.564Z,0.50
2018-11-10T12:21:17.628Z,0.40
2018-11-10T12:22:21.646Z,0.55
2018-11-10T12:23:25.750Z,0.40
2018-11-10T12:24:29.766Z,0.30
2018-11-10T12:25:33.772Z,0.50
2018-11-10T12:26:37.770Z,0.42
2018-11-10T12:27:42.570Z,0.28
2018-11-10T12:28:46.588Z,0.50
2018-11-10T12:29:50.587Z,0.42
2018-11-10T12:30:54.670Z,0.42
2018-11-10T12:31:58.748Z,0.60
2018-11-10T12:33:02.710Z,0.78
2018-11-10T12:34:06.949Z,0.70
2018-11-10T12:35:12.680Z,0.70
2018-11-10T12:36:16.739Z,0.62
2018-11-10T12:37:20.713Z,0.70
2018-11-10T12:38:24.828Z,0.70
2018-11-10T12:39:29.021Z,0.85
2018-11-10T12:40:33.042Z,0.80
2018-11-10T12:41:37.158Z,1.00
2018-11-10T12:42:41.339Z,0.80
2018-11-10T12:43:45.447Z,0.65
2018-11-10T12:44:49.487Z,0.70
2018-11-10T12:45:53.647Z,0.50
2018-11-10T12:46:57.662Z,0.80
2018-11-10T12:48:01.679Z,0.70
2018-11-10T12:49:06.243Z,0.70
2018-11-10T12:50:12.534Z,0.97
2018-11-10T12:51:16.613Z,1.30
2018-11-10T12:52:20.731Z,0.83
2018-11-10T12:53:24.794Z,1.07
2018-11-10T12:54:28.775Z,1.10
2018-11-10T12:55:32.844Z,1.20
2018-11-10T12:56:36.923Z,0.93
2018-11-10T12:57:41.754Z,0.97
2018-11-10T12:58:45.769Z,1.17
2018-11-10T12:59:49.705Z,1.50
2018-11-10T13:00:53.687Z,1.10
2018-11-10T13:01:57.803Z,1.33
2018-11-10T13:03:01.970Z,0.90
2018-11-10T13:04:06.658Z,1.23
2018-11-10T13:05:11.478Z,1.30
2018-11-10T13:06:15.505Z,1.03
2018-11-10T13:07:19.652Z,1.60
2018-11-10T13:08:23.659Z,1.30
2018-11-10T13:09:27.761Z,1.30
2018-11-10T13:10:31.758Z,0.80
2018-11-10T13:11:36.057Z,1.10
2018-11-10T13:12:40.492Z,1.17
2018-11-10T13:13:44.512Z,1.17
2018-11-10T13:14:48.496Z,1.03
2018-11-10T13:15:52.497Z,1.10
2018-11-10T13:16:56.486Z,1.27
2018-11-10T13:18:00.590Z,1.33
2018-11-10T13:19:05.064Z,0.90
2018-11-10T13:20:11.582Z,1.27
2018-11-10T13:21:15.581Z,0.97
2018-11-10T13:22:19.628Z,1.07
2018-11-10T13:23:23.760Z,1.10
2018-11-10T13:24:27.764Z,1.00
2018-11-10T13:25:31.730Z,1.43
2018-11-10T13:26:35.727Z,0.93
2018-11-10T13:27:39.976Z,1.77
2018-11-10T13:28:44.060Z,1.00
2018-11-10T13:29:48.200Z,0.97
2018-11-10T13:30:52.236Z,0.80
2018-11-10T13:31:56.235Z,0.97
2018-11-10T13:33:00.212Z,1.33
2018-11-10T13:34:04.590Z,1.20
2018-11-10T13:35:09.531Z,1.20
2018-11-10T13:36:13.646Z,1.50
2018-11-10T13:37:17.663Z,1.10
2018-11-10T13:38:21.803Z,1.30
2018-11-10T13:39:25.797Z,1.73
2018-11-10T13:40:29.887Z,1.47
2018-11-10T13:41:33.882Z,1.77
2018-11-10T13:42:37.912Z,1.17
2018-11-10T13:43:41.927Z,1.70
2018-11-10T13:44:46.369Z,1.50
2018-11-10T13:45:50.384Z,1.42
2018-11-10T13:46:54.583Z,1.20
2018-11-10T13:47:58.601Z,1.70
2018-11-10T13:49:02.601Z,1.33
2018-11-10T13:50:08.647Z,1.40
2018-11-10T13:51:13.275Z,1.10
2018-11-10T13:52:17.600Z,1.10
2018-11-10T13:53:21.181Z,1.47
2018-11-10T13:54:25.240Z,2.00
2018-11-10T13:55:29.226Z,1.30
2018-11-10T13:56:33.188Z,1.00
2018-11-10T13:57:37.271Z,1.20
2018-11-10T13:58:41.297Z,1.05
2018-11-10T13:59:45.373Z,1.22
2018-11-10T14:00:49.550Z,0.93
2018-11-10T14:01:53.807Z,0.93
2018-11-10T14:02:57.874Z,1.00
2018-11-10T14:04:01.857Z,0.80
2018-11-10T14:05:05.915Z,0.80
2018-11-10T14:06:10.068Z,1.03
2018-11-10T14:07:14.067Z,0.70
2018-11-10T14:08:18.132Z,0.80
2018-11-10T14:09:22.131Z,0.60
2018-11-10T14:10:26.189Z,0.60
2018-11-10T14:11:30.315Z,0.53
2018-11-10T14:12:34.349Z,0.43
2018-11-10T14:13:38.622Z,0.60
2018-11-10T14:14:42.684Z,0.50
2018-11-10T14:15:46.702Z,0.70
2018-11-10T14:16:51.533Z,0.50